Weather reports worldwide

Advertisment
Tibenham Airfield, United Kingdom (3931): temperature & dewpoint: 24.09.2020 23:00:00 - 30.09.2020 23:00:00 (BST)Tibenham Airfield, United Kingdom (3931): temperature -20cm & temperature -100cm: 24.09.2020 23:00:00 - 30.09.2020 23:00:00 (BST)Tibenham Airfield, United Kingdom (3931): wind speed & gusts: 24.09.2020 23:00:00 - 30.09.2020 23:00:00 (BST)Tibenham Airfield, United Kingdom (3931): wind direction: 24.09.2020 23:00:00 - 30.09.2020 23:00:00 (BST)Tibenham Airfield, United Kingdom (3931): reduced air pressure: 24.09.2020 23:00:00 - 30.09.2020 23:00:00 (BST)Tibenham Airfield, United Kingdom (3931): sunshine duration: 24.09.2020 23:00:00 - 30.09.2020 23:00:00 (BST)Tibenham Airfield, United Kingdom (3931): precipitation: 24.09.2020 23:00:00 - 30.09.2020 23:00:00 (BST)
Date & Time tt [°C] td [°C] tt -20cm [°C] tt -100cm [°C] ff [km/h] ff [kn] fx [km/h] fx [kn] dd ppp [hPa] sd [min] rr [mm]
30.09.2020 23:00:00 - - - - - - - - - - - -
30.09.2020 22:00:00 - - - - - - - - - - - -
30.09.2020 21:00:00 - - - - - - - - - - - -
30.09.2020 20:00:00 - - - - - - - - - - - -
30.09.2020 19:00:00 - - - - - - - - - - - -
30.09.2020 18:00:00 - - - - - - - - - - - -
30.09.2020 17:00:00 16,3 - - - 22 12 - - S 1004,6 0 0,0
30.09.2020 16:00:00 16,7 - - - 18 10 - - S 1005,2 0 0,0
30.09.2020 15:00:00 16,9 - - - 24 13 - - S 1005,8 18 0,0
30.09.2020 14:00:00 16,4 - - - 16 9 - - S 1006,7 0 0,0
30.09.2020 13:00:00 - - - - - - - - - - - -
30.09.2020 12:00:00 - - - - - - - - - - - -
30.09.2020 11:00:00 - - - - - - - - - - - -
30.09.2020 10:00:00 - - - - - - - - - - - -
30.09.2020 09:00:00 11,6 11,6 - - 11 6 - - S 1010,6 6 0,0
30.09.2020 08:00:00 10,9 10,9 - - 13 7 - - SSW 1010,8 0 0,0
30.09.2020 07:00:00 10,6 10,6 - - 16 9 - - SSW 1011,0 0 0,0
30.09.2020 06:00:00 11,1 11,1 - - 11 6 - - SSW 1011,1 0 0,0
30.09.2020 05:00:00 11,3 11,3 - - 13 7 - - SSE 1011,2 0 0,0
30.09.2020 04:00:00 10,8 10,8 - - 8 4 - - SSE 1011,9 0 0,0
30.09.2020 03:00:00 10,5 10,5 - - 8 4 - - SSE 1012,9 0 0,0
30.09.2020 02:00:00 9,9 9,9 - - 9 5 - - SSE 1013,5 0 0,0
30.09.2020 01:00:00 9,0 9,0 - - 5 3 - - SSE 1013,6 - 0,2
30.09.2020 00:00:00 9,1 9,0 - - 5 3 - - S 1014,3 0 0,0
29.09.2020 23:00:00 9,8 9,6 - - 8 4 - - SW 1014,6 0 0,0
29.09.2020 22:00:00 9,8 9,6 - - 5 3 - - WSW 1015,0 0 0,0
29.09.2020 21:00:00 10,9 10,5 - - 4 2 - - SW 1015,0 0 0,0
29.09.2020 20:00:00 12,4 12,1 - - 8 4 - - NW 1014,9 0 0,0
29.09.2020 19:00:00 12,7 12,3 - - 9 5 - - NNW 1014,8 0 0,0
29.09.2020 18:00:00 13,0 12,7 - - 11 6 - - NNW 1014,6 0 0,2
29.09.2020 17:00:00 13,4 13,1 - - 13 7 - - NNW 1014,2 0 0,4
29.09.2020 16:00:00 14,0 13,7 - - 8 4 - - N 1014,2 0 0,2
29.09.2020 15:00:00 13,8 13,6 - - 8 4 - - NNE 1014,2 0 0,2
29.09.2020 14:00:00 13,8 13,4 - - 8 4 - - NNE 1014,7 0 0,6
29.09.2020 13:00:00 13,7 13,0 - - 5 3 - - E 1014,9 0 0,4
29.09.2020 12:00:00 13,8 13,2 - - 4 2 - - E 1015,1 0 0,2
29.09.2020 11:00:00 13,8 13,5 - - 8 4 - - ESE 1015,2 0 0,4
29.09.2020 10:00:00 13,2 13,0 14,0 15,0 5 3 - - ESE 1015,0 0 0,4
29.09.2020 09:00:00 12,4 12,3 - - 0 0 - - N 1014,7 0 0,0
29.09.2020 08:00:00 10,8 10,6 - - 2 1 - - E 1014,3 0 0,2
29.09.2020 07:00:00 10,7 10,3 - - 2 1 - - W 1014,1 0 0,6
29.09.2020 06:00:00 10,4 9,9 - - 2 1 - - SSW 1013,9 0 0,4
29.09.2020 05:00:00 9,5 9,0 - - 2 1 - - WSW 1013,8 0 0,0
29.09.2020 04:00:00 9,0 8,6 - - 4 2 - - SW 1013,7 0 0,0
29.09.2020 03:00:00 8,5 7,8 - - 8 4 - - W 1013,9 0 0,0
29.09.2020 02:00:00 8,3 7,0 - - 4 2 - - W 1013,4 0 0,0
29.09.2020 01:00:00 8,7 6,9 - - 8 4 - - W 1013,5 - 0,0
29.09.2020 00:00:00 8,9 6,6 - - 8 4 - - W 1013,5 0 0,0
28.09.2020 23:00:00 9,0 7,0 - - 11 6 - - W 1013,5 0 0,0
28.09.2020 22:00:00 9,3 7,4 - - 8 4 - - W 1013,3 0 0,0
28.09.2020 21:00:00 10,2 8,5 - - 5 3 - - W 1013,0 0 0,0
28.09.2020 20:00:00 10,6 9,4 - - 2 1 - - WNW 1012,7 0 0,0
28.09.2020 19:00:00 11,1 7,8 - - 5 3 - - WNW 1012,2 0 0,0
28.09.2020 18:00:00 13,4 8,8 - - 5 3 - - WNW 1011,8 0 0,0
28.09.2020 17:00:00 15,4 7,6 - - 11 6 - - WNW 1011,4 24 0,0
28.09.2020 16:00:00 14,7 8,4 - - 11 6 - - NNW 1011,3 24 0,0
28.09.2020 15:00:00 14,2 9,2 - - 13 7 - - NW 1011,4 6 0,0
28.09.2020 14:00:00 13,4 10,1 - - 13 7 - - NNW 1011,8 0 0,0
28.09.2020 13:00:00 12,5 10,0 - - 13 7 - - WNW 1011,7 0 0,0
28.09.2020 12:00:00 12,2 10,5 - - 16 9 - - WNW 1011,6 0 0,0
28.09.2020 11:00:00 11,7 10,5 - - 15 8 - - NW 1011,6 0 0,0
28.09.2020 10:00:00 10,8 10,2 13,7 15,2 15 8 - - NW 1011,5 0 0,0
28.09.2020 09:00:00 10,4 10,2 - - 15 8 - - NW 1011,3 0 0,0
28.09.2020 08:00:00 10,1 10,0 - - 15 8 - - WNW 1011,2 0 0,0
28.09.2020 07:00:00 10,5 10,4 - - 15 8 - - WNW 1010,8 0 0,0
28.09.2020 06:00:00 10,7 10,6 - - 15 8 - - NW 1010,6 0 0,0
28.09.2020 05:00:00 10,9 10,7 - - 15 8 - - NW 1010,8 0 0,0
28.09.2020 04:00:00 11,2 11,0 - - 16 9 - - NNW 1010,8 0 0,0
28.09.2020 03:00:00 10,6 10,3 - - 16 9 - - NW 1011,3 0 0,0
28.09.2020 02:00:00 11,5 11,3 - - 21 11 - - NNW 1011,6 0 0,0
28.09.2020 01:00:00 11,6 11,3 - - 18 10 - - NNW 1011,7 - 0,0
28.09.2020 00:00:00 11,5 11,2 - - 18 10 - - NNW 1011,7 0 0,0
27.09.2020 23:00:00 11,5 11,2 - - 18 10 - - NNW 1011,6 0 0,0
27.09.2020 22:00:00 11,5 11,1 - - 22 12 - - NNW 1011,7 0 0,0
27.09.2020 21:00:00 11,4 11,0 - - 22 12 - - NNW 1011,7 0 0,0
27.09.2020 20:00:00 11,6 10,8 - - 21 11 - - NNW 1011,7 0 0,0
27.09.2020 19:00:00 11,8 10,6 - - 21 11 - - NNW 1011,3 0 0,0
27.09.2020 18:00:00 11,6 10,8 - - 24 13 - - NNW 1011,0 0 0,0
27.09.2020 17:00:00 11,6 10,8 - - 26 14 - - NNW 1010,8 0 0,0
27.09.2020 16:00:00 11,7 10,7 - - 26 14 46 25 NNW 1010,6 0 0,0
27.09.2020 15:00:00 12,2 10,4 - - 29 16 46 25 N 1010,4 0 0,0
27.09.2020 14:00:00 11,8 10,8 - - 28 15 46 25 NNW 1010,3 0 0,0
27.09.2020 13:00:00 11,5 10,5 - - 26 14 - - N 1010,2 0 0,2
27.09.2020 12:00:00 11,8 10,4 - - 28 15 50 27 N 1009,6 0 0,0
27.09.2020 11:00:00 11,2 10,2 - - 29 16 50 27 N 1009,5 0 0,0
27.09.2020 10:00:00 11,5 9,8 - - 29 16 55 30 N 1009,1 0 0,0
27.09.2020 09:00:00 12,1 9,3 - - 31 17 54 29 N 1008,8 0 0,0
27.09.2020 08:00:00 11,9 9,2 - - 35 19 54 29 NNW 1008,0 0 0,0
27.09.2020 07:00:00 11,7 9,1 - - 34 18 55 30 NNW 1008,0 0 0,0
27.09.2020 06:00:00 11,4 9,1 - - 29 16 59 32 NNW 1007,5 0 0,0
27.09.2020 05:00:00 11,0 9,0 - - 35 19 57 31 NNW 1007,7 0 0,0
27.09.2020 04:00:00 10,7 8,8 - - 34 18 55 30 NNW 1007,8 0 0,0
27.09.2020 03:00:00 10,6 8,4 - - 29 16 55 30 NNW 1008,0 0 0,0
27.09.2020 02:00:00 10,5 8,5 - - 28 15 52 28 N 1008,7 0 0,0
27.09.2020 01:00:00 11,1 8,1 - - 31 17 54 29 NNW 1008,5 - 0,0
27.09.2020 00:00:00 11,3 7,7 - - 35 19 57 31 N 1009,0 0 0,0
26.09.2020 23:00:00 11,2 7,7 - - 24 13 48 26 NNW 1009,3 0 0,0
26.09.2020 22:00:00 11,5 6,8 - - 29 16 55 30 N 1009,2 0 0,0
26.09.2020 21:00:00 11,3 7,4 - - 29 16 48 26 N 1009,2 0 0,0
26.09.2020 20:00:00 11,6 7,4 - - 34 18 54 29 NNW 1008,9 0 0,0
26.09.2020 19:00:00 11,7 7,9 - - 31 17 57 31 NNW 1008,6 0 0,0
26.09.2020 18:00:00 12,0 8,9 - - 34 18 54 29 N 1008,2 12 0,0
26.09.2020 17:00:00 11,9 9,7 - - 34 18 55 30 NNW 1007,3 0 0,2
26.09.2020 16:00:00 11,9 10,1 - - 29 16 52 28 NNW 1007,4 0 0,2
26.09.2020 15:00:00 11,3 10,4 - - 29 16 50 27 NNW 1007,0 0 0,4
26.09.2020 14:00:00 11,0 10,4 - - 26 14 46 25 NNW 1006,4 0 0,6
26.09.2020 13:00:00 9,9 9,6 - - 24 13 46 25 NW 1006,2 0 2,0
26.09.2020 12:00:00 9,1 8,6 - - 29 16 48 26 NW 1006,2 0 0,4
26.09.2020 11:00:00 8,5 6,6 - - 34 18 52 28 NW 1006,2 0 0,0
26.09.2020 10:00:00 7,9 5,5 - - 28 15 54 29 NW 1006,1 0 0,0
26.09.2020 09:00:00 7,9 5,2 - - 34 18 50 27 NW 1006,0 6 0,0
26.09.2020 08:00:00 7,2 4,6 - - 29 16 52 28 NW 1005,7 0 0,0
26.09.2020 07:00:00 7,1 5,1 - - 26 14 46 25 NW 1005,5 0 0,2
26.09.2020 06:00:00 7,1 6,0 - - 26 14 - - NW 1005,3 0 0,8
26.09.2020 05:00:00 7,4 6,4 - - 22 12 - - WNW 1005,2 0 2,2
26.09.2020 04:00:00 7,7 6,6 - - 24 13 52 28 WNW 1004,9 0 0,8
26.09.2020 03:00:00 9,1 7,0 - - 28 15 54 29 NW 1004,6 0 0,2
26.09.2020 02:00:00 9,3 7,1 - - 31 17 54 29 NNW 1004,1 0 0,4
26.09.2020 01:00:00 8,7 7,4 - - 31 17 54 29 NW 1003,9 - 1,0
26.09.2020 00:00:00 8,8 7,5 - - 37 20 63 34 NW 1003,6 0 1,4
25.09.2020 23:00:00 8,8 7,4 - - 35 19 61 33 NW 1003,2 0 0,4
25.09.2020 22:00:00 9,5 7,7 - - 37 20 70 38 NW 1002,6 0 1,4
25.09.2020 21:00:00 9,1 7,2 - - 35 19 63 34 NW 1002,1 0 1,2
25.09.2020 20:00:00 9,2 7,3 - - 31 17 70 38 NW 1001,4 0 1,2
25.09.2020 19:00:00 9,1 7,8 - - 35 19 63 34 NW 1000,9 0 1,8
25.09.2020 18:00:00 8,6 7,0 - - 46 25 76 41 NW 1000,1 0 2,4
25.09.2020 17:00:00 9,2 8,2 - - 39 21 70 38 NW 999,1 0 3,6
25.09.2020 16:00:00 9,5 8,1 - - 41 22 65 35 NW 998,1 0 7,0
25.09.2020 15:00:00 9,0 7,9 - - 41 22 67 36 NW 997,6 0 4,0
25.09.2020 14:00:00 9,2 8,3 - - 35 19 59 32 WNW 996,7 0 3,6
25.09.2020 13:00:00 8,8 8,0 - - 34 18 55 30 WNW 996,0 0 4,2
25.09.2020 12:00:00 8,8 8,0 - - 29 16 52 28 WNW 995,5 0 3,8
25.09.2020 11:00:00 8,9 7,8 - - 29 16 46 25 NW 995,3 0 3,0
25.09.2020 10:00:00 8,8 7,7 15,7 16,2 28 15 59 32 NW 994,6 0 1,6
25.09.2020 09:00:00 9,2 8,2 - - 29 16 50 27 NNW 993,9 0 3,8
25.09.2020 08:00:00 8,6 8,1 - - 21 11 - - WNW 993,2 0 3,4
25.09.2020 07:00:00 8,1 7,6 - - 18 10 - - WNW 992,7 0 2,2
25.09.2020 06:00:00 7,4 6,7 - - 13 7 - - WNW 993,0 0 3,4
25.09.2020 05:00:00 7,8 6,3 - - 24 13 - - NW 992,7 0 0,4
25.09.2020 04:00:00 8,4 7,8 - - 15 8 - - WNW 992,2 0 0,4
25.09.2020 03:00:00 8,8 8,5 - - 9 5 - - W 992,5 0 0,8
25.09.2020 02:00:00 8,8 8,3 - - 5 3 - - NW 992,7 0 2,6
25.09.2020 01:00:00 9,0 8,5 - - 5 3 - - N 992,7 - 1,8
25.09.2020 00:00:00 9,1 8,2 - - 5 3 - - NNE 992,8 0 1,0
24.09.2020 23:00:00 9,3 8,7 - - 2 1 - - NNE 993,0 0 1,0

tt = temperature
td = dewpoint
tt -20cm = temperature -20cm
tt -100cm = temperature -100cm
ff = wind speed
fx = gusts
dd = wind direction
ppp = reduced air pressure
sd = sunshine duration
rr = precipitation

Next stations